Washington Executive (W32)
Clinton, MD
Field Elevation: 249
Lat: 38°44.89N  Long: 76°55.97W
CTAF/Unicom Freq: 122.8000
Weather Advisories
2018-03-23   00:52 Z
Altimeter 30.08" Hg
Wind 330° @ 11 KT
Gusts 16 KT
Temperature 5° C (41° F)
Dewpoint -99° C (-146° F)
Relative Humidity 0%
Density Altitude -1,206 feet
Condensation Altitude 13,382 feet
Wind Chill: 1° C (34° F)
Wind and Runways
Indicated Runway = 05
Headwind = 2 kt
Crosswind = 11 kt
More Info
All DigiWx sites map
Weather Radar
NOAA Forecast
Airport IQ 5010
(HMIEM) Shock Trauma Ctr
(26N) Ocean City
about DigiWx
FAA Disclaimer: The data displayed is for advisory purposes only and is not to be used for flight planning or operations. For official data, please call (not available) to hear the current automated AWOS voice message.
  METAR W32 230052Z AUTO 33011G16KT 05/M99 A3008